Time;durP1;ratioP1;P1;durP2;ratioP2;P2;SDS_P1;SDS_P2;PMS_P1;PMS_P2;Temp;Humidity;BMP_temperature;BMP_pressure;BME280_temperature;BME280_humidity;BME280_pressure;Samples;Min_cycle;Max_cycle;Signal;HPM_P1;HPM_P2
2021/03/30 00:00:22;;;;;;;12.77;8.60;;;;;;;6.77;100.00;102997.86;1850947;77;26211;-76
2021/03/30 00:02:52;;;;;;;14.33;7.73;;;;;;;7.12;100.00;102995.83;1850942;77;26250;-76
2021/03/30 00:05:22;;;;;;;14.13;8.63;;;;;;;6.87;100.00;102993.33;1850961;77;26231;-77
2021/03/30 00:07:51;;;;;;;13.10;8.10;;;;;;;6.83;100.00;102997.05;1850848;76;26736;-77
2021/03/30 00:10:24;;;;;;;10.40;8.10;;;;;;;6.97;100.00;102998.45;1851094;77;26681;-77
2021/03/30 00:12:54;;;;;;;13.37;8.40;;;;;;;7.03;100.00;102985.17;1851068;77;26312;-77
2021/03/30 00:15:24;;;;;;;13.33;8.30;;;;;;;7.09;100.00;102989.34;1850944;77;26223;-77
2021/03/30 00:17:54;;;;;;;15.87;7.40;;;;;;;6.90;100.00;102992.90;1886796;76;26298;-77
2021/03/30 00:20:24;;;;;;;10.03;7.20;;;;;;;7.06;100.00;102989.74;1851097;77;26211;-77
2021/03/30 00:22:54;;;;;;;15.03;8.37;;;;;;;7.09;100.00;102989.88;1886659;76;26524;-77
2021/03/30 00:25:24;;;;;;;15.03;8.00;;;;;;;7.27;100.00;102997.03;1886616;76;26356;-76
2021/03/30 00:27:54;;;;;;;11.53;7.97;;;;;;;7.22;100.00;102987.98;1886743;76;26310;-76
2021/03/30 00:30:24;;;;;;;13.90;8.83;;;;;;;7.23;100.00;102990.22;1886797;76;26282;-77
2021/03/30 00:32:55;;;;;;;10.17;7.13;;;;;;;7.11;100.00;102989.97;1851135;77;26755;-76
2021/03/30 00:35:26;;;;;;;12.07;7.83;;;;;;;7.15;100.00;102992.63;1851127;77;26312;-77
2021/03/30 00:37:57;;;;;;;10.87;7.30;;;;;;;6.93;100.00;103001.32;1886723;76;26784;-77
2021/03/30 00:40:27;;;;;;;18.03;9.30;;;;;;;6.87;100.00;103003.00;1851014;77;26235;-76
2021/03/30 00:42:57;;;;;;;14.13;8.20;;;;;;;6.74;100.00;103002.95;1886787;76;26282;-76
2021/03/30 00:45:27;;;;;;;12.33;7.93;;;;;;;6.90;100.00;103001.72;1850919;77;26293;-77
2021/03/30 00:47:58;;;;;;;15.07;8.40;;;;;;;6.97;100.00;102999.31;1851082;77;26738;-76
2021/03/30 00:50:32;;;;;;;14.03;8.03;;;;;;;7.00;100.00;103000.80;1851046;77;26300;-76
2021/03/30 00:53:02;;;;;;;12.23;7.93;;;;;;;6.91;100.00;102996.52;1886710;76;26213;-76
2021/03/30 00:55:32;;;;;;;15.47;7.93;;;;;;;6.81;100.00;102994.14;1850994;77;26280;-76
2021/03/30 00:58:03;;;;;;;13.67;7.63;;;;;;;6.58;100.00;103000.56;1886696;76;26761;-76
2021/03/30 01:00:33;;;;;;;13.53;8.20;;;;;;;6.47;100.00;103001.98;1851055;77;26717;-77
2021/03/30 01:03:03;;;;;;;12.87;7.87;;;;;;;6.58;100.00;103001.95;1850906;77;26678;-76
2021/03/30 01:05:33;;;;;;;12.00;7.57;;;;;;;6.82;100.00;103000.86;1850996;77;26670;-77
2021/03/30 01:08:26;;;;;;;12.07;7.47;;;;;;;6.86;100.00;102995.23;1886714;76;26240;-77
2021/03/30 01:10:59;;;;;;;14.90;7.63;;;;;;;6.87;100.00;102994.70;1886789;75;26670;-76
2021/03/30 01:13:55;;;;;;;14.47;8.77;;;;;;;6.70;100.00;102993.38;1886684;75;26204;-76
2021/03/30 01:16:28;;;;;;;12.10;7.90;;;;;;;6.89;100.00;102987.05;1886770;76;26629;-76
2021/03/30 01:19:03;;;;;;;14.97;8.50;;;;;;;6.60;100.00;102991.00;1851011;77;26219;-77
2021/03/30 01:22:05;;;;;;;11.73;7.30;;;;;;;6.63;100.00;102991.14;1886825;76;26747;-76
2021/03/30 01:24:37;;;;;;;8.03;5.63;;;;;;;6.50;100.00;102984.18;1886839;75;26299;-76
2021/03/30 01:27:10;;;;;;;6.00;5.20;;;;;;;6.22;100.00;102977.34;1851007;77;26223;-76
2021/03/30 01:29:52;;;;;;;7.13;4.80;;;;;;;5.95;100.00;102984.61;1850929;77;26308;-76
2021/03/30 01:32:29;;;;;;;7.00;5.13;;;;;;;5.80;100.00;102986.61;1851004;77;26630;-77
2021/03/30 01:35:03;;;;;;;5.67;3.93;;;;;;;5.53;100.00;102986.08;1850964;77;26231;-76
2021/03/30 01:37:36;;;;;;;5.83;4.40;;;;;;;5.63;100.00;102976.42;1886643;76;26234;-76
2021/03/30 01:40:10;;;;;;;7.33;4.90;;;;;;;5.68;100.00;102978.58;1851027;77;26226;-77
2021/03/30 01:42:41;;;;;;;5.37;4.73;;;;;;;5.62;100.00;102984.36;1851022;77;26308;-77
2021/03/30 01:45:13;;;;;;;6.60;5.17;;;;;;;5.63;100.00;102987.97;1850897;77;26658;-76
2021/03/30 01:47:45;;;;;;;7.53;5.77;;;;;;;5.81;100.00;102982.29;1886648;76;26609;-77
2021/03/30 01:50:15;;;;;;;11.60;6.40;;;;;;;5.89;100.00;102979.40;1850915;77;26352;-77
2021/03/30 01:52:46;;;;;;;8.03;6.10;;;;;;;5.84;100.00;102972.74;1851110;77;26369;-77
2021/03/30 01:55:18;;;;;;;9.37;6.20;;;;;;;5.79;100.00;102973.34;1850999;77;26619;-76
2021/03/30 01:57:51;;;;;;;8.00;6.40;;;;;;;5.73;100.00;102971.94;1850892;77;26273;-77
2021/03/30 02:00:24;;;;;;;11.93;7.70;;;;;;;5.88;100.00;102972.69;1850997;77;26215;-77
2021/03/30 02:02:55;;;;;;;10.30;6.80;;;;;;;5.84;100.00;102966.70;1850982;77;26606;-77
2021/03/30 02:05:25;;;;;;;8.03;6.17;;;;;;;5.76;100.00;102961.87;1850920;77;26251;-77
2021/03/30 02:07:58;;;;;;;11.37;6.47;;;;;;;5.64;100.00;102961.59;1850995;77;26753;-76
2021/03/30 02:10:34;;;;;;;10.37;7.10;;;;;;;5.67;100.00;102964.45;1850909;76;26373;-77
2021/03/30 02:13:06;;;;;;;12.93;7.33;;;;;;;5.79;100.00;102961.45;1851143;77;26281;-76
2021/03/30 02:15:37;;;;;;;9.57;6.60;;;;;;;5.82;100.00;102956.39;1850971;77;26220;-77
2021/03/30 02:18:09;;;;;;;11.80;7.53;;;;;;;5.82;100.00;102955.53;1850963;77;26318;-76
2021/03/30 02:20:41;;;;;;;11.07;6.97;;;;;;;5.85;100.00;102961.52;1850985;77;26234;-76
2021/03/30 02:23:14;;;;;;;13.60;7.27;;;;;;;6.02;100.00;102956.55;1886705;76;26216;-76
2021/03/30 02:25:47;;;;;;;9.50;6.17;;;;;;;5.98;100.00;102955.27;1886636;76;26204;-76
2021/03/30 02:28:20;;;;;;;11.80;7.10;;;;;;;6.06;100.00;102949.58;1850878;77;26222;-76
2021/03/30 02:30:51;;;;;;;12.10;7.17;;;;;;;5.89;100.00;102949.58;1850993;77;26703;-76
2021/03/30 02:33:24;;;;;;;13.90;7.90;;;;;;;5.94;100.00;102947.07;1851005;77;26223;-76
2021/03/30 02:35:56;;;;;;;13.03;7.87;;;;;;;5.70;100.00;102944.74;1886607;76;26730;-76
2021/03/30 02:38:28;;;;;;;6.20;4.80;;;;;;;5.70;100.00;102947.50;1850895;77;26313;-76
2021/03/30 02:40:58;;;;;;;6.07;4.57;;;;;;;5.62;100.00;102938.87;1886630;76;26217;-76
2021/03/30 02:43:30;;;;;;;9.00;5.77;;;;;;;5.42;100.00;102936.50;1850859;77;26231;-77
2021/03/30 02:46:03;;;;;;;6.60;5.03;;;;;;;5.44;100.00;102942.65;1886621;76;26286;-76
2021/03/30 02:48:34;;;;;;;7.07;4.73;;;;;;;5.25;100.00;102946.11;1850966;77;26662;-77
2021/03/30 02:51:08;;;;;;;8.20;5.60;;;;;;;5.21;100.00;102948.42;1886604;76;26301;-76
2021/03/30 02:53:39;;;;;;;8.73;5.60;;;;;;;5.32;100.00;102949.23;1850864;77;26759;-76
2021/03/30 02:56:10;;;;;;;10.10;5.90;;;;;;;5.33;100.00;102946.81;1850982;77;26344;-76
2021/03/30 02:58:41;;;;;;;11.10;6.80;;;;;;;5.34;100.00;102949.05;1850845;77;26235;-77
2021/03/30 03:01:14;;;;;;;8.17;6.13;;;;;;;5.34;100.00;102946.30;1850957;77;26218;-76
2021/03/30 03:03:45;;;;;;;7.17;5.93;;;;;;;5.35;100.00;102935.05;1850906;77;26312;-77
2021/03/30 03:06:17;;;;;;;8.53;5.83;;;;;;;5.34;100.00;102938.03;1886648;76;26212;-77
2021/03/30 03:08:48;;;;;;;10.80;6.10;;;;;;;5.59;100.00;102937.05;1850920;77;26231;-77
2021/03/30 03:11:19;;;;;;;10.90;6.80;;;;;;;5.37;100.00;102939.00;1850994;76;26336;-76
2021/03/30 03:13:51;;;;;;;7.87;4.30;;;;;;;5.24;100.00;102938.36;1850862;77;26674;-76
2021/03/30 03:16:22;;;;;;;7.77;4.97;;;;;;;5.18;100.00;102941.91;1850871;77;26686;-76
2021/03/30 03:18:54;;;;;;;9.70;6.30;;;;;;;5.32;100.00;102947.00;1850922;77;26223;-77
2021/03/30 03:21:25;;;;;;;9.23;6.33;;;;;;;5.13;100.00;102947.18;1886651;76;26201;-77
2021/03/30 03:23:55;;;;;;;11.33;6.60;;;;;;;5.19;100.00;102945.52;1850925;77;26227;-77
2021/03/30 03:26:25;;;;;;;6.43;4.77;;;;;;;5.21;100.00;102940.67;1886538;76;26343;-77
2021/03/30 03:28:55;;;;;;;5.73;4.27;;;;;;;5.26;100.00;102938.17;1850921;77;26289;-77
2021/03/30 03:31:31;;;;;;;8.30;5.37;;;;;;;5.00;100.00;102937.41;1850943;77;26301;-76
2021/03/30 03:34:03;;;;;;;7.50;4.43;;;;;;;4.87;100.00;102940.89;1850907;77;26657;-76
2021/03/30 03:36:39;;;;;;;5.57;3.90;;;;;;;4.71;100.00;102930.63;1850832;77;26698;-76
2021/03/30 03:39:11;;;;;;;6.30;4.60;;;;;;;4.74;100.00;102941.27;1886508;76;26271;-76
2021/03/30 03:41:42;;;;;;;4.77;4.30;;;;;;;4.60;100.00;102932.02;1850948;77;26307;-76
2021/03/30 03:44:29;;;;;;;5.43;3.63;;;;;;;4.42;100.00;102940.70;1792103;80;33893;-76
2021/03/30 03:46:59;;;;;;;5.17;4.00;;;;;;;4.60;100.00;102934.77;1825996;78;26437;-76
2021/03/30 03:49:29;;;;;;;5.20;3.70;;;;;;;4.54;100.00;102935.53;1826078;78;26254;-76
2021/03/30 03:52:02;;;;;;;6.40;3.93;;;;;;;4.69;100.00;102933.60;1826028;78;26394;-77
2021/03/30 03:54:33;;;;;;;6.80;5.13;;;;;;;4.86;100.00;102931.44;1825948;78;26801;-78
2021/03/30 03:57:07;;;;;;;9.00;5.73;;;;;;;4.95;100.00;102935.77;1826013;78;26840;-76
2021/03/30 03:59:39;;;;;;;10.77;5.43;;;;;;;5.12;100.00;102935.83;1825287;78;26797;-76
2021/03/30 04:02:13;;;;;;;9.13;6.20;;;;;;;5.34;100.00;102926.48;1814201;78;932693;-76
2021/03/30 04:04:48;;;;;;;13.63;7.00;;;;;;;5.24;100.00;102925.11;1826171;78;26238;-77
2021/03/30 04:07:21;;;;;;;11.77;6.50;;;;;;;5.07;100.00;102921.79;1826131;78;26316;-77
2021/03/30 04:09:54;;;;;;;9.93;6.37;;;;;;;5.00;100.00;102928.63;1826197;78;26324;-77
2021/03/30 04:12:29;;;;;;;10.67;6.83;;;;;;;5.25;100.00;102919.93;1826102;77;26378;-78
2021/03/30 04:14:59;;;;;;;8.23;5.27;;;;;;;5.20;100.00;102916.92;1835119;76;26208;-77
2021/03/30 04:17:29;;;;;;;7.07;4.57;;;;;;;4.98;100.00;102922.45;1851066;77;26223;-76
2021/03/30 04:20:03;;;;;;;5.60;4.97;;;;;;;4.83;100.00;102918.08;1886679;76;26201;-76
2021/03/30 04:22:33;;;;;;;7.57;5.10;;;;;;;4.63;100.00;102912.87;1886854;76;26677;-77
2021/03/30 04:25:04;;;;;;;4.90;3.90;;;;;;;4.37;100.00;102908.78;1886667;76;26216;-76
2021/03/30 04:27:33;;;;;;;7.23;4.93;;;;;;;4.49;100.00;102914.65;1850928;77;26223;-77
2021/03/30 04:30:04;;;;;;;7.57;4.60;;;;;;;4.40;100.00;102918.56;1850959;77;26305;-77
2021/03/30 04:32:33;;;;;;;6.73;4.77;;;;;;;4.62;100.00;102920.27;1851114;77;26223;-77
2021/03/30 04:35:04;;;;;;;7.27;5.03;;;;;;;4.51;100.00;102919.42;1851032;77;26270;-77
2021/03/30 04:37:33;;;;;;;6.40;4.87;;;;;;;4.69;100.00;102918.98;1850959;77;26300;-77
2021/03/30 04:40:04;;;;;;;7.27;5.07;;;;;;;4.84;100.00;102922.51;1850980;77;26650;-78
2021/03/30 04:42:33;;;;;;;6.47;5.50;;;;;;;4.92;100.00;102931.48;1851000;77;26227;-77
2021/03/30 04:45:05;;;;;;;8.33;5.80;;;;;;;4.98;100.00;102932.61;1850948;77;26387;-77
2021/03/30 04:47:35;;;;;;;8.47;5.87;;;;;;;4.80;100.00;102930.31;1851108;77;26214;-77
2021/03/30 04:50:07;;;;;;;9.17;6.20;;;;;;;4.91;100.00;102941.34;1851048;77;26682;-76
2021/03/30 04:52:37;;;;;;;7.10;5.20;;;;;;;4.88;100.00;102930.70;1851045;77;26215;-75
2021/03/30 04:55:09;;;;;;;7.03;4.77;;;;;;;4.99;100.00;102931.57;1850942;77;26681;-75
2021/03/30 04:57:39;;;;;;;5.90;4.37;;;;;;;4.97;100.00;102930.90;1850806;77;26725;-76
2021/03/30 05:00:11;;;;;;;8.63;4.90;;;;;;;4.84;100.00;102928.02;1886625;76;26376;-76
2021/03/30 05:02:41;;;;;;;5.70;4.23;;;;;;;4.86;100.00;102937.80;1886794;76;26298;-76
2021/03/30 05:05:14;;;;;;;5.97;4.90;;;;;;;4.82;100.00;102927.38;1886604;76;26709;-77
2021/03/30 05:07:44;;;;;;;10.20;6.37;;;;;;;4.71;100.00;102932.86;1851089;77;26298;-76
2021/03/30 05:10:14;;;;;;;10.23;6.10;;;;;;;4.81;100.00;102936.67;1850955;77;26307;-76
2021/03/30 05:12:44;;;;;;;8.27;6.60;;;;;;;4.64;100.00;102947.61;1886685;74;26241;-76
2021/03/30 05:15:15;;;;;;;10.30;7.80;;;;;;;4.49;100.00;102950.42;1851017;77;26219;-76
2021/03/30 05:17:44;;;;;;;14.23;7.80;;;;;;;4.63;100.00;102950.03;1850981;77;26216;-76
2021/03/30 05:20:15;;;;;;;12.67;8.00;;;;;;;4.77;100.00;102947.23;1850919;77;26689;-76
2021/03/30 05:22:45;;;;;;;9.10;7.63;;;;;;;4.90;100.00;102946.00;1886656;76;26237;-76
2021/03/30 05:25:16;;;;;;;10.43;7.13;;;;;;;5.03;100.00;102948.03;1850982;77;26211;-76
2021/03/30 05:27:46;;;;;;;11.30;7.10;;;;;;;4.89;100.00;102942.91;1850959;77;26327;-76
2021/03/30 05:30:17;;;;;;;10.63;7.73;;;;;;;4.74;100.00;102940.75;1851002;77;26666;-76
2021/03/30 05:32:47;;;;;;;12.03;7.90;;;;;;;4.68;100.00;102939.29;1851044;77;26300;-77
2021/03/30 05:35:17;;;;;;;13.43;8.33;;;;;;;4.89;100.00;102934.64;1851166;77;26385;-76
2021/03/30 05:37:47;;;;;;;13.47;8.50;;;;;;;5.00;100.00;102941.02;1850931;77;26216;-77
2021/03/30 05:40:20;;;;;;;14.00;9.30;;;;;;;4.99;100.00;102943.97;1851015;77;26216;-76
2021/03/30 05:42:50;;;;;;;15.40;8.93;;;;;;;4.98;100.00;102941.73;1851095;77;26712;-76
2021/03/30 05:45:22;;;;;;;14.50;8.37;;;;;;;5.02;100.00;102942.19;1850990;77;26504;-77
2021/03/30 05:47:53;;;;;;;15.17;9.13;;;;;;;4.98;100.00;102951.38;1851048;77;26674;-76
2021/03/30 05:50:28;;;;;;;14.07;8.70;;;;;;;4.84;100.00;102952.80;1886728;76;26208;-76
2021/03/30 05:53:05;;;;;;;13.83;7.80;;;;;;;4.91;100.00;102952.36;1886607;74;26294;-75
2021/03/30 05:55:37;;;;;;;13.97;8.90;;;;;;;4.93;100.00;102950.25;1886750;76;26189;-76
2021/03/30 05:58:09;;;;;;;12.87;9.37;;;;;;;4.96;100.00;102948.50;1850898;77;26230;-77
2021/03/30 06:00:42;;;;;;;11.67;7.73;;;;;;;4.85;100.00;102949.00;1851062;77;26650;-77
2021/03/30 06:03:14;;;;;;;15.63;9.60;;;;;;;5.04;100.00;102952.49;1851054;77;26329;-76
2021/03/30 06:05:45;;;;;;;13.80;8.23;;;;;;;5.05;100.00;102955.55;1850978;77;26289;-75
2021/03/30 06:08:15;;;;;;;12.20;8.37;;;;;;;4.90;100.00;102955.64;1886633;76;26710;-76
2021/03/30 06:10:46;;;;;;;8.50;6.33;;;;;;;4.92;100.00;102959.58;1850880;77;26246;-76
2021/03/30 06:13:16;;;;;;;7.13;5.30;;;;;;;4.84;100.00;102956.41;1886568;75;26761;-77
2021/03/30 06:15:45;;;;;;;7.00;4.53;;;;;;;4.53;100.00;102955.87;1850887;77;26760;-77
2021/03/30 06:18:20;;;;;;;4.80;4.30;;;;;;;4.29;100.00;102961.69;1850881;77;26257;-76
2021/03/30 06:20:50;;;;;;;7.40;4.63;;;;;;;4.18;100.00;102963.56;1850875;77;26646;-77
2021/03/30 06:23:28;;;;;;;7.50;4.77;;;;;;;4.07;100.00;102975.89;1850975;77;26215;-78
2021/03/30 06:25:58;;;;;;;9.77;5.57;;;;;;;4.15;100.00;102967.53;1851149;77;26294;-80
2021/03/30 06:28:31;;;;;;;4.90;4.23;;;;;;;4.22;100.00;102972.63;1851127;77;26215;-80
2021/03/30 06:31:04;;;;;;;4.30;3.90;;;;;;;4.31;100.00;102971.99;1850883;77;26267;-80
2021/03/30 06:33:36;;;;;;;7.27;5.33;;;;;;;4.37;100.00;102973.95;1850923;77;26215;-81
2021/03/30 06:36:14;;;;;;;9.37;5.70;;;;;;;4.49;100.00;102974.64;1850777;77;26228;-79
2021/03/30 06:38:57;;;;;;;10.87;6.73;;;;;;;4.79;100.00;102974.58;1850717;77;26293;-81
2021/03/30 06:41:46;;;;;;;8.53;6.53;;;;;;;4.72;100.00;102975.87;1886634;76;26732;-81
2021/03/30 06:44:56;;;;;;;9.10;6.97;;;;;;;4.71;100.00;102976.91;1886210;76;26201;-80
2021/03/30 06:47:43;;;;;;;10.87;7.07;;;;;;;4.87;100.00;102973.08;1877406;73;26241;-82
2021/03/30 06:50:25;;;;;;;14.03;8.57;;;;;;;5.01;100.00;102974.38;1885958;76;26786;-85
2021/03/30 06:56:10;;;;;;;6.80;5.10;;;;;;;5.55;100.00;102966.07;1883420;75;26220;-86
2021/03/30 06:58:59;;;;;;;3.33;3.00;;;;;;;5.58;100.00;102966.52;1886764;76;26245;-86
2021/03/30 07:02:18;;;;;;;3.80;3.40;;;;;;;5.52;100.00;102955.45;1851322;77;26684;-87
2021/03/30 07:05:01;;;;;;;5.00;4.47;;;;;;;5.57;100.00;102951.54;1851107;77;26293;-85
2021/03/30 07:07:42;;;;;;;6.53;4.77;;;;;;;5.49;100.00;102949.27;1851302;77;26281;-85
2021/03/30 07:10:13;;;;;;;6.40;5.37;;;;;;;5.60;100.00;102948.41;1851168;77;26527;-88
2021/03/30 07:12:43;;;;;;;7.90;5.63;;;;;;;5.63;100.00;102943.33;1887084;76;26213;-86
2021/03/30 07:15:16;;;;;;;9.43;5.70;;;;;;;6.03;100.00;102939.48;1851458;76;26325;-86
2021/03/30 07:17:50;;;;;;;10.50;6.43;;;;;;;6.04;100.00;102939.78;1851247;77;26285;-86
2021/03/30 07:20:21;;;;;;;11.93;7.50;;;;;;;6.02;100.00;102942.77;1851191;77;26259;-81
2021/03/30 07:22:53;;;;;;;10.93;7.33;;;;;;;6.19;100.00;102946.88;1886799;76;26212;-81
2021/03/30 07:25:24;;;;;;;9.77;7.77;;;;;;;6.25;100.00;102946.05;1850916;77;26291;-83
2021/03/30 07:27:57;;;;;;;15.17;9.63;;;;;;;6.34;100.00;102943.44;1850937;77;26256;-82
2021/03/30 07:30:30;;;;;;;15.93;12.53;;;;;;;6.53;100.00;102942.34;1886983;76;26310;-82
2021/03/30 07:33:10;;;;;;;19.13;12.67;;;;;;;6.70;100.00;102938.14;1886630;76;26748;-83
2021/03/30 07:35:41;;;;;;;18.83;13.03;;;;;;;7.07;100.00;102934.80;1886795;74;26192;-83
2021/03/30 07:38:18;;;;;;;19.70;14.20;;;;;;;7.09;100.00;102938.75;1886880;76;26350;-82
2021/03/30 07:40:49;;;;;;;24.10;13.87;;;;;;;7.08;100.00;102928.74;1886749;76;26233;-83
2021/03/30 07:43:24;;;;;;;24.83;15.77;;;;;;;7.30;100.00;102933.87;1886817;76;26296;-82
2021/03/30 07:45:57;;;;;;;24.27;15.00;;;;;;;7.42;100.00;102929.06;1886862;76;26222;-82
2021/03/30 07:48:30;;;;;;;21.80;14.77;;;;;;;7.58;100.00;102928.61;1886695;76;26259;-83
2021/03/30 07:51:03;;;;;;;24.50;17.23;;;;;;;7.66;100.00;102933.92;1886971;76;26224;-82
2021/03/30 07:53:45;;;;;;;25.77;16.20;;;;;;;8.15;100.00;102937.01;1886938;76;26341;-82
2021/03/30 07:56:38;;;;;;;24.47;16.00;;;;;;;8.32;100.00;102936.55;1886850;76;26266;-82
2021/03/30 07:59:10;;;;;;;25.87;16.50;;;;;;;8.58;100.00;102936.42;1886727;75;26322;-82
2021/03/30 08:01:40;;;;;;;21.73;16.03;;;;;;;8.92;100.00;102931.84;1886723;76;26237;-82
2021/03/30 08:04:13;;;;;;;24.40;17.33;;;;;;;8.86;100.00;102932.73;1886897;76;26655;-82
2021/03/30 08:06:51;;;;;;;25.57;17.10;;;;;;;9.17;100.00;102926.86;1886925;74;26228;-83
2021/03/30 08:09:22;;;;;;;22.27;15.80;;;;;;;9.35;100.00;102929.70;1887016;76;26663;-82
2021/03/30 08:11:57;;;;;;;21.63;17.17;;;;;;;9.44;100.00;102917.25;1887094;76;26648;-82
2021/03/30 08:14:39;;;;;;;28.00;15.77;;;;;;;9.78;100.00;102918.63;1886807;75;26768;-84
2021/03/30 08:17:17;;;;;;;20.70;14.70;;;;;;;9.62;100.00;102922.00;1887127;76;26694;-84
2021/03/30 08:19:58;;;;;;;23.90;16.07;;;;;;;9.63;100.00;102929.25;1886879;76;26287;-84
2021/03/30 08:22:43;;;;;;;22.67;14.50;;;;;;;10.02;100.00;102928.27;1886823;76;26295;-83
2021/03/30 08:25:26;;;;;;;22.57;14.43;;;;;;;10.10;100.00;102929.06;1886867;76;26259;-84
2021/03/30 08:27:56;;;;;;;22.40;14.27;;;;;;;10.35;100.00;102920.13;1886859;76;26668;-83
2021/03/30 08:30:57;;;;;;;19.17;13.93;;;;;;;10.52;100.00;102914.77;1886788;76;26315;-83
2021/03/30 08:33:36;;;;;;;21.67;15.20;;;;;;;10.60;100.00;102913.91;1886043;76;26225;-84
2021/03/30 08:36:24;;;;;;;22.13;15.33;;;;;;;10.89;100.00;102910.80;1881943;76;26276;-83
2021/03/30 08:39:00;;;;;;;16.43;13.70;;;;;;;10.82;100.00;102916.48;1881865;76;26313;-83
2021/03/30 08:41:51;;;;;;;19.23;13.63;;;;;;;11.06;100.00;102913.75;1885068;76;26297;-83
2021/03/30 08:44:24;;;;;;;14.13;12.63;;;;;;;11.17;100.00;102916.55;1886629;76;26719;-82
2021/03/30 08:46:58;;;;;;;17.90;12.83;;;;;;;11.46;100.00;102912.55;1886967;76;26282;-82
2021/03/30 08:49:34;;;;;;;17.07;12.60;;;;;;;11.41;100.00;102916.91;1889607;75;26278;-82
2021/03/30 08:52:09;;;;;;;17.63;12.50;;;;;;;11.54;100.00;102911.65;1886947;76;26257;-82
2021/03/30 08:54:49;;;;;;;17.60;12.00;;;;;;;11.74;100.00;102909.91;1886802;76;26198;-83
2021/03/30 08:57:31;;;;;;;14.90;12.13;;;;;;;12.03;100.00;102906.66;1886473;76;26246;-82
2021/03/30 09:00:03;;;;;;;17.23;11.43;;;;;;;12.22;100.00;102911.00;1886902;76;26201;-83
2021/03/30 09:02:41;;;;;;;15.27;11.27;;;;;;;12.15;100.00;102907.52;1886755;76;26292;-83
2021/03/30 09:05:22;;;;;;;19.60;11.23;;;;;;;12.25;100.00;102904.92;1885864;76;27038;-83
2021/03/30 09:08:00;;;;;;;16.60;10.60;;;;;;;12.45;100.00;102898.36;1886819;76;26260;-83
2021/03/30 09:10:43;;;;;;;17.37;11.50;;;;;;;12.51;100.00;102892.35;1886880;76;26316;-83
2021/03/30 09:13:15;;;;;;;12.73;9.97;;;;;;;12.61;100.00;102894.81;1886700;76;26782;-83
2021/03/30 09:15:54;;;;;;;17.70;11.37;;;;;;;12.85;100.00;102892.73;1886753;74;26351;-83
2021/03/30 09:18:28;;;;;;;14.53;10.73;;;;;;;12.99;100.00;102896.91;1886777;75;26266;-83
2021/03/30 09:21:26;;;;;;;16.70;10.67;;;;;;;13.07;100.00;102887.27;1886622;76;26233;-84
2021/03/30 09:24:09;;;;;;;14.00;10.73;;;;;;;13.32;100.00;102886.34;1886665;75;26197;-84
2021/03/30 09:26:40;;;;;;;14.57;10.73;;;;;;;13.42;100.00;102876.74;1886521;75;26208;-83
2021/03/30 09:29:09;;;;;;;16.20;10.73;;;;;;;13.33;100.00;102877.42;1886645;76;26205;-84
2021/03/30 09:31:52;;;;;;;19.03;10.63;;;;;;;13.27;100.00;102873.69;1886829;76;26204;-84
2021/03/30 09:34:24;;;;;;;13.13;9.87;;;;;;;13.58;100.00;102871.69;1886683;76;26701;-84
2021/03/30 09:36:56;;;;;;;14.90;9.53;;;;;;;13.52;100.00;102877.46;1886825;74;26309;-83
2021/03/30 09:39:36;;;;;;;14.17;9.90;;;;;;;13.54;100.00;102870.51;1886600;76;26225;-84
2021/03/30 09:42:10;;;;;;;13.23;9.97;;;;;;;13.82;100.00;102872.30;1850907;77;26208;-84
2021/03/30 09:44:43;;;;;;;15.27;9.60;;;;;;;13.90;100.00;102869.09;1850996;77;26273;-84
2021/03/30 09:47:15;;;;;;;16.27;8.97;;;;;;;14.14;100.00;102871.91;1851132;77;26674;-83
2021/03/30 09:49:55;;;;;;;13.87;8.77;;;;;;;14.46;100.00;102860.04;1872832;75;26266;-83
2021/03/30 09:52:33;;;;;;;18.20;8.77;;;;;;;14.87;100.00;102855.70;1851133;77;26222;-83
2021/03/30 09:55:04;;;;;;;17.10;9.67;;;;;;;15.04;100.00;102856.41;1851106;77;26212;-83
2021/03/30 09:57:34;;;;;;;22.40;10.70;;;;;;;14.95;100.00;102858.00;1850888;77;26265;-83
2021/03/30 10:00:06;;;;;;;16.47;9.47;;;;;;;14.88;100.00;102853.20;1886710;76;26325;-83
2021/03/30 10:02:38;;;;;;;15.57;10.77;;;;;;;14.97;100.00;102851.61;1850948;77;26331;-83
2021/03/30 10:05:12;;;;;;;16.53;11.27;;;;;;;14.93;100.00;102849.87;1886654;76;26212;-83
2021/03/30 10:07:42;;;;;;;16.80;11.20;;;;;;;14.95;100.00;102843.46;1886932;76;26201;-83
2021/03/30 10:10:14;;;;;;;17.23;11.43;;;;;;;14.90;100.00;102837.81;1886809;76;26295;-84
2021/03/30 10:12:53;;;;;;;15.33;11.17;;;;;;;15.00;100.00;102835.12;1886912;76;26733;-84
2021/03/30 10:15:33;;;;;;;19.13;10.73;;;;;;;15.11;100.00;102837.43;1886730;76;26796;-83
2021/03/30 10:18:04;;;;;;;17.97;12.23;;;;;;;15.28;100.00;102837.28;1886667;76;26245;-83
2021/03/30 10:20:38;;;;;;;16.43;10.63;;;;;;;15.40;100.00;102833.75;1886861;76;26240;-83
2021/03/30 10:23:17;;;;;;;15.53;10.07;;;;;;;15.48;100.00;102827.09;1886730;76;26632;-83
2021/03/30 10:25:49;;;;;;;19.40;11.70;;;;;;;15.40;100.00;102834.56;1886837;76;26209;-83
2021/03/30 10:28:29;;;;;;;16.57;10.43;;;;;;;15.41;100.00;102833.46;1886757;76;26278;-83
2021/03/30 10:31:07;;;;;;;17.50;10.80;;;;;;;15.69;100.00;102834.24;1886635;76;26206;-84
2021/03/30 10:33:40;;;;;;;18.37;12.07;;;;;;;15.74;100.00;102823.91;1885378;75;26739;-85
2021/03/30 10:36:27;;;;;;;;;;;;;;;;;;;;;
2021/03/30 10:39:11;;;;;;;46.00;15.90;;;;;;;15.96;100.00;102820.91;1883248;75;26212;-82
2021/03/30 10:41:47;;;;;;;20.90;14.17;;;;;;;15.86;100.00;102820.88;1886840;76;26197;-84
2021/03/30 10:44:17;;;;;;;18.07;12.80;;;;;;;15.94;100.00;102816.16;1885380;75;26599;-84
2021/03/30 10:46:57;;;;;;;17.53;13.60;;;;;;;15.98;100.00;102812.23;1886804;76;26672;-84
2021/03/30 10:49:50;;;;;;;15.77;11.83;;;;;;;15.96;100.00;102806.89;1886843;76;26624;-84
2021/03/30 10:52:33;;;;;;;17.83;12.10;;;;;;;16.10;100.00;102807.23;1818478;78;26285;-84
2021/03/30 10:55:21;;;;;;;15.07;10.63;;;;;;;16.27;100.00;102805.89;1818863;79;26234;-83
2021/03/30 10:58:13;;;;;;;14.33;9.10;;;;;;;16.32;100.00;102801.70;1885248;75;26736;-84
2021/03/30 11:01:22;;;;;;;13.60;10.07;;;;;;;16.47;100.00;102791.65;1847005;76;26354;-84
2021/03/30 11:03:55;;;;;;;12.60;8.47;;;;;;;16.47;100.00;102790.25;1844863;76;26303;-84
2021/03/30 11:06:42;;;;;;;14.97;9.53;;;;;;;16.61;100.00;102781.02;1850896;77;26215;-83
2021/03/30 11:09:18;;;;;;;12.77;8.43;;;;;;;16.49;100.00;102776.21;1886158;74;26316;-83
2021/03/30 11:11:50;;;;;;;12.13;7.60;;;;;;;16.70;100.00;102774.30;1851052;77;26728;-83
2021/03/30 11:14:20;;;;;;;10.53;7.20;;;;;;;16.97;100.00;102762.80;1886724;76;26204;-84
2021/03/30 11:16:53;;;;;;;9.97;6.03;;;;;;;17.00;100.00;102760.26;1886800;74;26213;-84
2021/03/30 11:19:23;;;;;;;9.40;5.47;;;;;;;17.33;100.00;102760.79;1886832;75;26212;-84
2021/03/30 11:21:54;;;;;;;10.77;6.03;;;;;;;17.34;100.00;102753.46;1886773;76;26206;-85
2021/03/30 11:24:25;;;;;;;9.30;5.93;;;;;;;17.19;100.00;102757.72;1851186;77;26289;-83
2021/03/30 11:27:02;;;;;;;9.03;5.63;;;;;;;17.26;100.00;102754.05;1851115;77;26320;-83
2021/03/30 11:29:39;;;;;;;9.00;4.43;;;;;;;17.45;100.00;102743.90;1851023;77;26211;-84
2021/03/30 11:35:03;;;;;;;8.43;4.70;;;;;;;17.35;100.00;102744.47;1850696;76;26215;-84
2021/03/30 11:37:42;;;;;;;8.50;4.80;;;;;;;17.19;100.00;102741.72;1886850;76;26687;-83
2021/03/30 11:40:13;;;;;;;11.10;4.40;;;;;;;17.44;100.00;102737.99;1886512;76;26200;-83
2021/03/30 11:42:43;;;;;;;8.90;5.40;;;;;;;17.64;100.00;102730.92;1851081;77;26203;-83
2021/03/30 11:45:14;;;;;;;6.80;3.97;;;;;;;17.41;100.00;102741.94;1886859;76;26197;-84
2021/03/30 11:47:53;;;;;;;7.97;4.00;;;;;;;17.45;100.00;102726.19;1850992;77;26212;-84
2021/03/30 11:50:20;;;;;;;7.50;4.77;;;;;;;17.19;100.00;102725.42;1885796;74;26225;-84
2021/03/30 11:52:50;;;;;;;8.13;5.00;;;;;;;17.19;100.00;102729.08;1850987;77;26657;-84
2021/03/30 11:55:27;;;;;;;8.73;4.77;;;;;;;17.37;100.00;102725.37;1886123;73;26359;-83